Time;durP1;ratioP1;P1;durP2;ratioP2;P2;SDS_P1;SDS_P2;PMS_P1;PMS_P2;Temp;Humidity;BMP_temperature;BMP_pressure;BME280_temperature;BME280_humidity;BME280_pressure;Samples;Min_cycle;Max_cycle;Signal;HPM_P1;HPM_P2
2023/06/20 00:01:34;;;;;;;21.10;19.13;;;25.30;44.70;;;;;;5074743;28;20330;-58
2023/06/20 00:04:00;;;;;;;18.97;17.30;;;25.30;44.60;;;;;;5073006;28;20192;-57
2023/06/20 00:06:26;;;;;;;21.60;19.63;;;25.30;44.60;;;;;;5074680;28;20406;-56
2023/06/20 00:08:51;;;;;;;20.67;18.67;;;25.20;44.70;;;;;;5074305;28;20188;-56
2023/06/20 00:11:17;;;;;;;19.43;17.50;;;25.20;44.70;;;;;;5074055;28;20537;-53
2023/06/20 00:13:43;;;;;;;20.87;18.97;;;25.20;44.80;;;;;;5074164;28;20180;-55
2023/06/20 00:16:09;;;;;;;20.60;18.80;;;25.20;44.70;;;;;;5074378;28;20679;-57
2023/06/20 00:18:37;;;;;;;20.27;18.60;;;25.20;44.90;;;;;;5073944;28;20248;-58
2023/06/20 00:21:02;;;;;;;19.53;17.70;;;25.20;44.70;;;;;;5074206;28;20483;-54
2023/06/20 00:23:29;;;;;;;21.87;19.77;;;25.20;44.50;;;;;;5074107;28;20843;-57
2023/06/20 00:25:56;;;;;;;20.83;19.03;;;25.20;44.60;;;;;;5073748;28;20208;-57
2023/06/20 00:28:22;;;;;;;21.13;18.60;;;25.10;44.90;;;;;;5073987;28;20447;-54
2023/06/20 00:30:47;;;;;;;21.60;19.60;;;25.10;45.00;;;;;;5073669;28;20407;-54
2023/06/20 00:33:13;;;;;;;18.67;16.97;;;25.00;45.20;;;;;;5073995;28;20430;-56
2023/06/20 00:35:39;;;;;;;20.07;18.30;;;24.90;45.50;;;;;;5074042;28;20637;-55
2023/06/20 00:38:06;;;;;;;20.87;18.97;;;24.90;45.60;;;;;;5073744;28;20192;-58
2023/06/20 00:40:32;;;;;;;19.13;17.47;;;24.90;45.60;;;;;;5073630;28;20184;-54
2023/06/20 00:42:58;;;;;;;20.20;18.40;;;24.90;45.60;;;;;;5072419;28;20944;-57
2023/06/20 00:45:30;;;;;;;18.73;17.17;;;24.80;45.40;;;;;;5073626;28;20537;-56
2023/06/20 00:47:58;;;;;;;21.23;19.23;;;24.90;45.60;;;;;;5073345;28;20423;-55
2023/06/20 00:50:27;;;;;;;20.67;18.73;;;24.80;45.60;;;;;;5073365;28;20949;-55
2023/06/20 00:52:59;;;;;;;19.77;18.00;;;24.80;45.60;;;;;;5073487;28;20794;-58
2023/06/20 00:55:27;;;;;;;21.20;19.30;;;24.80;45.60;;;;;;5073738;28;20407;-56
2023/06/20 00:57:56;;;;;;;20.87;18.87;;;24.80;45.60;;;;;;5073328;28;20422;-55
2023/06/20 01:00:23;;;;;;;20.53;18.63;;;24.80;45.60;;;;;;5072999;28;20763;-58
2023/06/20 01:02:50;;;;;;;18.13;16.53;;;24.80;45.50;;;;;;5073494;28;20410;-56
2023/06/20 01:05:16;;;;;;;18.97;17.20;;;24.80;45.40;;;;;;5073520;28;20455;-60
2023/06/20 01:08:43;;;;;;;18.67;17.07;;;24.70;45.50;;;;;;5073143;28;20411;-59
2023/06/20 01:11:34;;;;;;;18.70;17.00;;;24.60;45.50;;;;;;5028056;28;20489;-55
2023/06/20 01:14:13;;;;;;;19.83;17.87;;;24.60;45.70;;;;;;5072929;28;20945;-57
2023/06/20 01:16:57;;;;;;;20.10;18.40;;;24.40;46.00;;;;;;5072971;28;20460;-56
2023/06/20 01:19:44;;;;;;;20.40;18.57;;;24.40;46.00;;;;;;5072911;28;20921;-59
2023/06/20 01:22:34;;;;;;;20.23;18.37;;;24.40;46.00;;;;;;5073195;28;20403;-59
2023/06/20 01:25:05;;;;;;;18.33;16.70;;;24.40;46.00;;;;;;5071598;28;20537;-57
2023/06/20 01:27:37;;;;;;;19.87;18.03;;;24.40;46.00;;;;;;5071542;28;20411;-57
2023/06/20 01:30:12;;;;;;;21.17;19.27;;;24.40;46.00;;;;;;5072642;28;20424;-55
2023/06/20 01:32:46;;;;;;;19.13;17.50;;;24.40;45.90;;;;;;5072917;28;20391;-58
2023/06/20 01:35:16;;;;;;;21.93;19.90;;;24.40;45.90;;;;;;5072679;28;20402;-56
2023/06/20 01:37:43;;;;;;;21.67;19.57;;;24.40;46.00;;;;;;5071775;28;20419;-56
2023/06/20 01:40:12;;;;;;;18.40;16.70;;;24.30;46.00;;;;;;5072556;28;20415;-58
2023/06/20 01:42:41;;;;;;;20.47;18.67;;;24.30;46.00;;;;;;5072892;28;20437;-58
2023/06/20 01:45:10;;;;;;;20.50;18.70;;;24.20;46.10;;;;;;5072439;28;20448;-56
2023/06/20 01:47:38;;;;;;;22.80;20.90;;;24.20;47.00;;;;;;5071195;28;20546;-55
2023/06/20 01:50:06;;;;;;;19.27;17.67;;;24.20;46.10;;;;;;5072526;28;20813;-59
2023/06/20 01:52:34;;;;;;;20.13;18.27;;;24.20;46.00;;;;;;5072276;28;20811;-56
2023/06/20 01:55:04;;;;;;;21.53;19.43;;;24.20;45.90;;;;;;5072359;28;20464;-55
2023/06/20 01:57:31;;;;;;;21.53;19.53;;;24.10;45.80;;;;;;5072472;28;20411;-58
2023/06/20 01:59:58;;;;;;;19.13;17.43;;;24.10;45.90;;;;;;5072247;28;20919;-57
2023/06/20 02:02:27;;;;;;;22.43;19.50;;;24.00;46.10;;;;;;5072522;28;20411;-55
2023/06/20 02:04:58;;;;;;;20.93;19.07;;;24.00;46.30;;;;;;5072297;28;20458;-56
2023/06/20 02:07:26;;;;;;;21.60;19.50;;;24.00;46.30;;;;;;5072230;28;20400;-59
2023/06/20 02:09:54;;;;;;;20.43;18.70;;;24.00;46.30;;;;;;5071872;28;20430;-57
2023/06/20 02:12:20;;;;;;;21.33;19.40;;;24.00;46.00;;;;;;5072220;28;20495;-56
2023/06/20 02:14:49;;;;;;;25.77;20.33;;;24.00;45.80;;;;;;5072254;28;20410;-58
2023/06/20 02:17:16;;;;;;;21.10;19.10;;;23.90;46.20;;;;;;5071892;28;20502;-54
2023/06/20 02:19:41;;;;;;;21.70;19.70;;;23.90;46.30;;;;;;5053733;28;20439;-56
2023/06/20 02:22:11;;;;;;;20.07;17.97;;;23.80;46.50;;;;;;5072232;28;20421;-56
2023/06/20 02:24:37;;;;;;;20.50;18.70;;;23.70;46.70;;;;;;5072096;28;20462;-59
2023/06/20 02:27:07;;;;;;;21.40;19.40;;;23.80;46.70;;;;;;5053989;28;20930;-55
2023/06/20 02:29:38;;;;;;;19.97;18.27;;;23.80;46.60;;;;;;5071652;28;20427;-58
2023/06/20 02:32:05;;;;;;;18.70;16.90;;;23.80;46.40;;;;;;5071783;28;20387;-56
2023/06/20 02:34:33;;;;;;;19.77;17.97;;;23.80;46.30;;;;;;5072186;28;20446;-56
2023/06/20 02:36:59;;;;;;;19.90;18.20;;;23.80;46.40;;;;;;5072102;28;20411;-56
2023/06/20 02:39:25;;;;;;;19.90;18.10;;;23.80;46.30;;;;;;5071631;28;20427;-60
2023/06/20 02:41:50;;;;;;;21.10;19.30;;;23.70;46.60;;;;;;5071915;28;20418;-56
2023/06/20 02:44:16;;;;;;;23.13;21.03;;;23.60;46.70;;;;;;5071749;28;20958;-55
2023/06/20 02:47:00;;;;;;;22.10;20.20;;;23.60;47.00;;;;;;5071703;28;20172;-57
2023/06/20 02:50:11;;;;;;;20.57;18.77;;;23.60;47.00;;;;;;5072869;28;20275;-55
2023/06/20 02:52:48;;;;;;;19.93;17.80;;;23.60;47.10;;;;;;5074856;28;20438;-55
2023/06/20 02:55:35;;;;;;;18.97;17.20;;;23.60;47.10;;;;;;5075687;28;20409;-56
2023/06/20 02:58:07;;;;;;;20.73;18.83;;;23.60;47.10;;;;;;5075563;28;20426;-55
2023/06/20 03:00:35;;;;;;;19.37;17.67;;;23.60;47.00;;;;;;5075422;28;20448;-56
2023/06/20 03:03:08;;;;;;;19.00;17.30;;;23.60;47.00;;;;;;5075576;28;20415;-59
2023/06/20 03:05:37;;;;;;;19.10;17.50;;;23.70;46.90;;;;;;5075422;28;21039;-55
2023/06/20 03:08:04;;;;;;;18.63;16.97;;;23.60;47.00;;;;;;5075348;28;20472;-56
2023/06/20 03:10:32;;;;;;;18.50;16.70;;;23.60;47.00;;;;;;5075181;28;20465;-57
2023/06/20 03:13:03;;;;;;;19.57;17.77;;;23.60;47.00;;;;;;5074031;28;20434;-58
2023/06/20 03:15:29;;;;;;;19.80;17.90;;;23.60;46.80;;;;;;5075611;28;20395;-55
2023/06/20 03:17:55;;;;;;;19.73;18.03;;;23.60;47.00;;;;;;5075043;28;20913;-55
2023/06/20 03:20:20;;;;;;;21.50;19.47;;;23.50;47.10;;;;;;5075065;28;20169;-60
2023/06/20 03:22:46;;;;;;;20.17;18.47;;;23.50;47.20;;;;;;5074183;28;20180;-59
2023/06/20 03:25:12;;;;;;;20.27;18.47;;;23.50;47.20;;;;;;5075060;28;20560;-55
2023/06/20 03:27:38;;;;;;;21.20;19.30;;;23.50;47.20;;;;;;5074999;28;20165;-59
2023/06/20 03:30:06;;;;;;;21.13;19.30;;;23.50;47.40;;;;;;5074751;28;20543;-58
2023/06/20 03:32:31;;;;;;;19.17;17.13;;;23.50;47.60;;;;;;5075047;28;20429;-55
2023/06/20 03:34:57;;;;;;;19.50;17.73;;;23.50;47.60;;;;;;5075182;28;20930;-54
2023/06/20 03:37:23;;;;;;;19.87;17.93;;;23.50;47.70;;;;;;5074990;28;20723;-58
2023/06/20 03:39:48;;;;;;;19.70;17.83;;;23.60;47.80;;;;;;5074618;28;20199;-56
2023/06/20 03:42:14;;;;;;;19.40;17.60;;;23.60;47.80;;;;;;5075138;28;20244;-56
2023/06/20 03:44:40;;;;;;;18.07;16.43;;;23.60;47.70;;;;;;5074719;28;20599;-56
2023/06/20 03:47:06;;;;;;;17.67;16.07;;;23.70;48.00;;;;;;5074717;28;20164;-58
2023/06/20 03:49:31;;;;;;;17.23;15.83;;;23.80;47.90;;;;;;5074448;28;20193;-57
2023/06/20 03:51:57;;;;;;;18.97;17.17;;;23.90;48.10;;;;;;5075019;28;20407;-56
2023/06/20 03:54:23;;;;;;;17.03;15.50;;;23.90;48.00;;;;;;5074616;28;20180;-60
2023/06/20 03:56:49;;;;;;;19.50;17.70;;;24.00;48.00;;;;;;5074537;28;20176;-58
2023/06/20 03:59:14;;;;;;;17.73;16.13;;;24.00;48.00;;;;;;5074222;28;20197;-55
2023/06/20 04:01:40;;;;;;;18.80;17.10;;;24.10;48.00;;;;;;5073549;28;20168;-57
2023/06/20 04:04:06;;;;;;;18.70;17.10;;;24.20;48.00;;;;;;5074444;28;20204;-56
2023/06/20 04:06:32;;;;;;;16.33;14.83;;;24.20;48.10;;;;;;5074717;28;20822;-55
2023/06/20 04:08:58;;;;;;;17.77;16.17;;;24.30;47.90;;;;;;5074560;28;20199;-59
2023/06/20 04:11:24;;;;;;;16.87;15.30;;;24.40;47.90;;;;;;5074475;28;20222;-56
2023/06/20 04:13:50;;;;;;;18.90;17.20;;;24.40;47.70;;;;;;5073024;28;20430;-57
2023/06/20 04:16:16;;;;;;;16.50;14.93;;;24.50;47.00;;;;;;5074180;28;20472;-56
2023/06/20 04:18:41;;;;;;;17.53;16.03;;;24.60;46.90;;;;;;5074172;28;20215;-57
2023/06/20 04:21:07;;;;;;;15.70;14.20;;;24.70;47.00;;;;;;5073958;28;20402;-56
2023/06/20 04:23:33;;;;;;;16.90;15.27;;;24.70;47.00;;;;;;5074196;28;20177;-58
2023/06/20 04:25:59;;;;;;;16.37;14.80;;;24.80;46.60;;;;;;5073931;28;20200;-54
2023/06/20 04:28:25;;;;;;;19.13;17.10;;;24.90;46.50;;;;;;5073846;28;20435;-58
2023/06/20 04:30:52;;;;;;;18.90;16.73;;;24.90;46.40;;;;;;5073660;28;20493;-56
2023/06/20 04:33:22;;;;;;;18.33;16.67;;;24.90;46.40;;;;;;5073905;28;20544;-56
2023/06/20 04:35:48;;;;;;;15.83;14.33;;;24.90;46.40;;;;;;5073730;28;20423;-59
2023/06/20 04:38:14;;;;;;;15.90;14.40;;;25.00;46.00;;;;;;5073700;28;20426;-58
2023/06/20 04:40:39;;;;;;;17.50;16.00;;;25.00;46.00;;;;;;5073795;28;20172;-55
2023/06/20 04:43:05;;;;;;;16.50;14.80;;;25.00;46.00;;;;;;5073606;28;20176;-56
2023/06/20 04:45:31;;;;;;;14.57;13.37;;;25.10;45.70;;;;;;5073779;28;20262;-58
2023/06/20 04:47:57;;;;;;;16.23;14.73;;;25.20;45.70;;;;;;5073472;28;20555;-56
2023/06/20 04:50:23;;;;;;;15.70;14.30;;;25.20;45.40;;;;;;5073347;28;20250;-58
2023/06/20 04:52:49;;;;;;;16.00;14.70;;;25.30;45.00;;;;;;5073553;28;20498;-55
2023/06/20 04:55:14;;;;;;;16.43;15.00;;;25.40;44.90;;;;;;5073749;28;20984;-57
2023/06/20 04:57:40;;;;;;;15.53;14.00;;;25.50;44.20;;;;;;5073237;28;20705;-59
2023/06/20 05:00:07;;;;;;;17.53;15.93;;;25.60;44.00;;;;;;5073109;28;20176;-55
2023/06/20 05:02:33;;;;;;;16.00;14.63;;;25.60;43.90;;;;;;5073508;28;20211;-60
2023/06/20 05:04:59;;;;;;;16.03;14.63;;;25.70;43.80;;;;;;5073151;28;20883;-59
2023/06/20 05:07:24;;;;;;;17.00;14.83;;;25.70;43.50;;;;;;5073424;28;20417;-58
2023/06/20 05:09:50;;;;;;;15.53;14.20;;;25.80;43.40;;;;;;5072800;28;20211;-57
2023/06/20 05:12:16;;;;;;;17.23;15.63;;;26.00;43.60;;;;;;5073117;28;20188;-57
2023/06/20 05:14:42;;;;;;;17.23;15.57;;;26.10;43.60;;;;;;5073024;28;20231;-58
2023/06/20 05:17:08;;;;;;;16.70;15.20;;;26.30;43.40;;;;;;5073014;28;20403;-56
2023/06/20 05:19:34;;;;;;;15.40;14.10;;;26.40;43.20;;;;;;5072719;28;20766;-54
2023/06/20 05:22:00;;;;;;;16.10;14.50;;;26.40;42.60;;;;;;5072964;28;20171;-60
2023/06/20 05:24:25;;;;;;;18.10;16.30;;;26.50;42.60;;;;;;5073086;28;20197;-60
2023/06/20 05:26:51;;;;;;;14.60;13.30;;;26.60;41.80;;;;;;5073014;28;20414;-57
2023/06/20 05:29:17;;;;;;;16.70;15.10;;;26.60;41.80;;;;;;5072628;28;20203;-56
2023/06/20 05:31:43;;;;;;;14.77;13.40;;;26.60;41.90;;;;;;5072805;28;20533;-53
2023/06/20 05:34:08;;;;;;;14.77;13.37;;;26.60;41.50;;;;;;5072682;28;20565;-60
2023/06/20 05:36:34;;;;;;;14.80;13.00;;;26.60;41.40;;;;;;5072701;28;20165;-59
2023/06/20 05:39:00;;;;;;;14.03;12.63;;;26.60;41.20;;;;;;5072506;28;20673;-55
2023/06/20 05:41:26;;;;;;;14.90;13.40;;;26.60;41.40;;;;;;5072374;28;20161;-55
2023/06/20 05:43:52;;;;;;;16.20;14.37;;;26.70;41.30;;;;;;5072496;28;20181;-58
2023/06/20 05:46:18;;;;;;;17.03;14.07;;;26.70;41.50;;;;;;5072920;28;20464;-55
2023/06/20 05:48:48;;;;;;;16.60;15.00;;;26.70;41.00;;;;;;5054693;28;20418;-56
2023/06/20 05:51:14;;;;;;;16.43;14.73;;;26.70;40.90;;;;;;5072460;28;20684;-58
2023/06/20 05:53:41;;;;;;;17.23;15.63;;;26.70;41.40;;;;;;5072522;28;20413;-55
2023/06/20 05:56:11;;;;;;;16.90;15.40;;;26.70;41.50;;;;;;5072391;28;20458;-56
2023/06/20 05:58:36;;;;;;;15.60;14.20;;;26.70;41.50;;;;;;5072374;28;20489;-58
2023/06/20 06:01:05;;;;;;;16.07;14.50;;;26.70;42.00;;;;;;5072285;28;20407;-55
2023/06/20 06:03:34;;;;;;;16.10;13.93;;;26.80;42.00;;;;;;5072400;28;20772;-57
2023/06/20 06:06:00;;;;;;;13.43;12.13;;;26.80;41.80;;;;;;5072331;28;20588;-56
2023/06/20 06:08:26;;;;;;;15.43;14.03;;;26.90;41.50;;;;;;5072288;28;20454;-56
2023/06/20 06:10:52;;;;;;;16.83;15.37;;;26.90;41.90;;;;;;5071906;28;20438;-55
2023/06/20 06:13:18;;;;;;;17.10;14.07;;;26.90;41.80;;;;;;5072113;28;20433;-55
2023/06/20 06:15:44;;;;;;;16.27;14.77;;;27.00;42.20;;;;;;5072141;28;20184;-55
2023/06/20 06:18:10;;;;;;;15.37;13.87;;;27.10;42.20;;;;;;5072065;28;20430;-57
2023/06/20 06:20:35;;;;;;;16.97;15.43;;;27.10;41.70;;;;;;5072033;28;20233;-55
2023/06/20 06:23:01;;;;;;;15.53;14.10;;;27.10;41.90;;;;;;5072418;28;20499;-56
2023/06/20 06:25:28;;;;;;;15.90;14.40;;;27.20;41.80;;;;;;5071565;28;20599;-58
2023/06/20 06:27:54;;;;;;;15.33;13.80;;;27.20;41.50;;;;;;5072130;28;20418;-55
2023/06/20 06:30:20;;;;;;;14.63;13.27;;;27.30;41.10;;;;;;5071970;28;20415;-54
2023/06/20 06:32:48;;;;;;;16.13;13.87;;;27.30;40.70;;;;;;5072099;28;20406;-55
2023/06/20 06:35:16;;;;;;;15.70;14.33;;;27.30;40.30;;;;;;5072394;28;20628;-58
2023/06/20 06:37:42;;;;;;;15.00;13.53;;;27.30;40.50;;;;;;5072008;28;20413;-56
2023/06/20 06:40:11;;;;;;;13.37;11.97;;;27.30;40.80;;;;;;5072182;28;20511;-57
2023/06/20 06:42:38;;;;;;;15.70;14.30;;;27.40;41.00;;;;;;5072170;28;20423;-58
2023/06/20 06:45:04;;;;;;;16.17;14.57;;;27.40;40.90;;;;;;5071845;28;20461;-55
2023/06/20 06:47:30;;;;;;;15.67;14.27;;;27.50;40.40;;;;;;5071944;28;20903;-55
2023/06/20 06:49:56;;;;;;;13.00;11.83;;;27.60;40.00;;;;;;5071624;28;20422;-57
2023/06/20 06:52:22;;;;;;;14.50;13.30;;;27.60;40.40;;;;;;5071912;28;20177;-55
2023/06/20 06:54:48;;;;;;;15.70;14.17;;;27.60;40.30;;;;;;5072003;28;20176;-55
2023/06/20 06:57:13;;;;;;;15.30;13.80;;;27.70;39.90;;;;;;5072132;28;20914;-56
2023/06/20 06:59:39;;;;;;;16.33;14.17;;;27.70;39.60;;;;;;5071953;28;20192;-59
2023/06/20 07:02:06;;;;;;;15.70;13.67;;;27.80;39.90;;;;;;5071709;28;20604;-55
2023/06/20 07:04:33;;;;;;;14.00;12.70;;;27.80;39.30;;;;;;5071612;28;20193;-57
2023/06/20 07:06:59;;;;;;;14.60;13.20;;;27.90;39.50;;;;;;5071506;28;20407;-56
2023/06/20 07:09:24;;;;;;;15.47;14.07;;;28.00;39.80;;;;;;5071384;28;20430;-55
2023/06/20 07:11:50;;;;;;;14.93;13.43;;;28.00;40.80;;;;;;5071525;28;20173;-57
2023/06/20 07:14:16;;;;;;;22.97;14.57;;;28.10;40.30;;;;;;5071603;28;20177;-57
2023/06/20 07:17:15;;;;;;;16.17;13.47;;;28.10;40.80;;;;;;5071525;28;20326;-55
2023/06/20 07:19:43;;;;;;;15.00;13.43;;;28.20;39.80;;;;;;5071347;28;20204;-55
2023/06/20 07:22:09;;;;;;;15.40;13.90;;;28.20;39.60;;;;;;5071857;28;20467;-55
2023/06/20 07:24:35;;;;;;;18.40;13.00;;;28.30;39.80;;;;;;5071469;28;21029;-58
2023/06/20 07:27:01;;;;;;;13.73;12.10;;;28.30;39.70;;;;;;5070614;28;20204;-55
2023/06/20 07:29:26;;;;;;;14.33;13.07;;;28.30;39.60;;;;;;5071235;28;20193;-58
2023/06/20 07:31:52;;;;;;;14.83;13.47;;;28.40;39.30;;;;;;5071453;28;20661;-58
2023/06/20 07:34:18;;;;;;;14.50;13.10;;;28.50;39.30;;;;;;5071716;28;20246;-55
2023/06/20 07:36:44;;;;;;;13.77;12.50;;;28.50;39.20;;;;;;5073440;28;20234;-58
2023/06/20 07:39:09;;;;;;;14.67;13.27;;;28.60;39.00;;;;;;5074900;28;20204;-57
2023/06/20 07:41:35;;;;;;;15.03;13.53;;;28.60;38.80;;;;;;5074916;28;20268;-54
2023/06/20 07:44:01;;;;;;;14.80;13.33;;;28.70;39.10;;;;;;5074803;28;20174;-57
2023/06/20 07:46:27;;;;;;;14.20;12.80;;;28.70;38.10;;;;;;5074925;28;20185;-57
2023/06/20 07:48:52;;;;;;;15.47;13.20;;;28.80;38.50;;;;;;5074727;28;20434;-54
2023/06/20 07:51:18;;;;;;;13.43;12.10;;;28.80;38.10;;;;;;5074767;28;20182;-57
2023/06/20 07:53:44;;;;;;;15.17;13.77;;;28.90;38.10;;;;;;5074894;28;20263;-57
2023/06/20 07:56:10;;;;;;;13.93;12.67;;;28.90;38.20;;;;;;5074746;28;20242;-54
2023/06/20 07:58:35;;;;;;;14.67;13.37;;;28.90;37.90;;;;;;5074834;28;20590;-55
2023/06/20 08:01:01;;;;;;;13.97;12.87;;;29.00;39.00;;;;;;5074492;28;20177;-59
2023/06/20 08:03:27;;;;;;;16.57;13.57;;;29.10;38.90;;;;;;5074630;28;20265;-57
2023/06/20 08:05:52;;;;;;;15.20;13.70;;;29.10;38.40;;;;;;5074640;28;20205;-55
2023/06/20 08:08:18;;;;;;;13.43;12.13;;;29.20;38.80;;;;;;5073107;28;20684;-55
2023/06/20 08:10:44;;;;;;;13.57;12.30;;;29.20;38.70;;;;;;5075059;28;20173;-57
2023/06/20 08:13:10;;;;;;;14.83;13.53;;;29.30;38.70;;;;;;5074263;28;20705;-54
2023/06/20 08:15:36;;;;;;;16.73;14.07;;;29.40;37.70;;;;;;5074663;28;20414;-59
2023/06/20 08:18:01;;;;;;;14.67;13.30;;;29.40;37.20;;;;;;5074183;28;20698;-56
2023/06/20 08:20:27;;;;;;;18.00;14.30;;;29.40;38.10;;;;;;5074365;28;20184;-56
2023/06/20 08:22:53;;;;;;;15.23;13.83;;;29.50;37.90;;;;;;5074498;28;20637;-56
2023/06/20 08:25:18;;;;;;;13.67;12.33;;;29.50;37.80;;;;;;5074248;28;20283;-55
2023/06/20 08:27:44;;;;;;;14.00;12.60;;;29.50;38.00;;;;;;5074208;28;20180;-56
2023/06/20 08:30:11;;;;;;;15.63;14.03;;;29.50;38.60;;;;;;5074522;28;20184;-57
2023/06/20 08:32:39;;;;;;;15.37;13.77;;;29.60;39.00;;;;;;5074436;28;20551;-57
2023/06/20 08:35:06;;;;;;;15.57;13.50;;;29.60;38.50;;;;;;5073755;28;20961;-55
2023/06/20 08:37:32;;;;;;;15.37;13.67;;;29.70;38.30;;;;;;5073669;28;20418;-54
2023/06/20 08:39:57;;;;;;;19.13;15.13;;;29.70;38.70;;;;;;5073165;28;21084;-55
2023/06/20 08:42:23;;;;;;;14.00;12.83;;;29.70;38.90;;;;;;5073422;28;20407;-57
2023/06/20 08:44:50;;;;;;;13.60;12.20;;;29.80;39.40;;;;;;5073228;28;20196;-55
2023/06/20 08:47:16;;;;;;;15.60;14.10;;;29.90;39.20;;;;;;5072998;28;20268;-57
2023/06/20 08:49:42;;;;;;;14.57;13.17;;;29.90;39.30;;;;;;5073359;28;20494;-54
2023/06/20 08:52:11;;;;;;;19.47;13.63;;;29.90;39.60;;;;;;5073791;28;20230;-54
2023/06/20 08:54:43;;;;;;;13.80;12.53;;;29.90;39.50;;;;;;5073628;28;20502;-57
2023/06/20 08:57:08;;;;;;;14.53;13.03;;;29.90;39.40;;;;;;5073547;28;20499;-53
2023/06/20 08:59:35;;;;;;;15.80;14.00;;;29.90;39.70;;;;;;5073047;28;20451;-54
2023/06/20 09:02:02;;;;;;;11.90;10.80;;;29.90;39.80;;;;;;5073558;28;20226;-57
2023/06/20 09:04:28;;;;;;;14.07;12.73;;;29.80;39.20;;;;;;5073284;28;20482;-57
2023/06/20 09:06:53;;;;;;;12.40;11.30;;;29.80;39.50;;;;;;5073338;28;20448;-54
2023/06/20 09:09:20;;;;;;;13.30;10.80;;;29.80;39.40;;;;;;5073095;28;20455;-55
2023/06/20 09:11:57;;;;;;;11.83;10.73;;;29.80;39.00;;;;;;5073522;28;20172;-57
2023/06/20 09:14:29;;;;;;;11.40;10.40;;;29.70;38.90;;;;;;5073332;28;20449;-56
2023/06/20 09:16:55;;;;;;;16.80;9.63;;;29.70;39.40;;;;;;5073052;28;20478;-54
2023/06/20 09:19:22;;;;;;;10.37;9.27;;;29.60;39.50;;;;;;5072794;28;20422;-54
2023/06/20 09:21:48;;;;;;;10.00;9.03;;;29.60;38.90;;;;;;5072962;28;20410;-57
2023/06/20 09:24:21;;;;;;;10.10;9.10;;;29.50;38.50;;;;;;5072860;28;20406;-54
2023/06/20 09:26:47;;;;;;;9.33;8.43;;;29.60;39.20;;;;;;5071681;28;20410;-54
2023/06/20 09:29:15;;;;;;;10.70;9.60;;;29.60;39.30;;;;;;5072797;28;20430;-55
2023/06/20 09:31:49;;;;;;;11.63;8.60;;;29.70;39.20;;;;;;5073085;28;20431;-55
2023/06/20 09:34:19;;;;;;;10.57;9.17;;;29.70;39.70;;;;;;5072820;28;20388;-53
2023/06/20 09:36:46;;;;;;;11.77;9.70;;;29.80;39.30;;;;;;5072583;28;20411;-59
2023/06/20 09:39:17;;;;;;;10.00;9.00;;;29.80;39.00;;;;;;5072372;28;20426;-55
2023/06/20 09:41:53;;;;;;;13.40;8.60;;;29.80;38.60;;;;;;5072659;28;20442;-53
2023/06/20 09:44:20;;;;;;;10.30;9.40;;;29.80;38.20;;;;;;5072771;28;20448;-56
2023/06/20 09:46:46;;;;;;;9.97;9.07;;;29.70;38.40;;;;;;5072804;28;20751;-55
2023/06/20 09:49:13;;;;;;;10.63;9.63;;;29.70;38.70;;;;;;5072197;28;20441;-54
2023/06/20 09:51:48;;;;;;;9.57;8.63;;;29.70;38.40;;;;;;5072284;28;20544;-56
2023/06/20 09:54:26;;;;;;;11.20;10.07;;;29.70;38.60;;;;;;5072452;28;20394;-56
2023/06/20 09:56:59;;;;;;;9.40;8.50;;;29.60;38.30;;;;;;5072705;28;20400;-54
2023/06/20 09:59:27;;;;;;;9.97;9.07;;;29.50;38.80;;;;;;5071494;28;20429;-57
2023/06/20 10:01:54;;;;;;;11.60;10.30;;;29.50;39.10;;;;;;5072284;28;20501;-55
2023/06/20 10:04:22;;;;;;;9.63;8.63;;;29.50;39.00;;;;;;5072169;28;20451;-54
2023/06/20 10:06:48;;;;;;;11.03;10.03;;;29.40;39.30;;;;;;5072188;28;20415;-57
2023/06/20 10:09:15;;;;;;;12.57;9.50;;;29.40;39.50;;;;;;5071927;28;20783;-54
2023/06/20 10:11:41;;;;;;;13.43;9.97;;;29.40;39.50;;;;;;5072177;28;20411;-54
2023/06/20 10:14:08;;;;;;;9.73;8.90;;;29.30;40.30;;;;;;5072068;28;20430;-58
2023/06/20 10:16:34;;;;;;;12.10;10.23;;;29.40;40.60;;;;;;5071991;28;20427;-56
2023/06/20 10:19:26;;;;;;;11.40;10.30;;;29.40;41.50;;;;;;5071940;28;20768;-54
2023/06/20 10:22:00;;;;;;;10.80;9.80;;;29.50;40.70;;;;;;5071748;28;20192;-56
2023/06/20 10:24:30;;;;;;;11.33;10.23;;;29.50;40.90;;;;;;5072309;28;20450;-57
2023/06/20 10:27:03;;;;;;;11.30;10.30;;;29.60;40.30;;;;;;5071981;28;20410;-53
2023/06/20 10:29:29;;;;;;;11.30;10.00;;;29.60;39.70;;;;;;5071663;28;20961;-56
2023/06/20 10:31:56;;;;;;;12.20;11.10;;;29.70;39.70;;;;;;5072248;28;20431;-54
2023/06/20 10:34:49;;;;;;;12.20;11.00;;;29.70;39.50;;;;;;5072055;28;20411;-55
2023/06/20 10:37:34;;;;;;;13.57;12.20;;;29.70;39.50;;;;;;5071744;28;20431;-58
2023/06/20 10:40:00;;;;;;;11.97;10.87;;;29.70;40.10;;;;;;5071800;28;20826;-56
2023/06/20 10:42:40;;;;;;;11.53;10.43;;;29.80;40.30;;;;;;5072219;28;20414;-56
2023/06/20 10:45:27;;;;;;;11.50;10.50;;;29.90;39.80;;;;;;5071821;28;20192;-57
2023/06/20 10:47:53;;;;;;;12.77;11.57;;;30.00;39.80;;;;;;5071850;28;20403;-54
2023/06/20 10:50:20;;;;;;;12.20;10.27;;;30.00;39.80;;;;;;5071525;28;20497;-54
2023/06/20 10:52:46;;;;;;;12.90;11.60;;;30.10;39.80;;;;;;5071751;28;20400;-54
2023/06/20 10:55:23;;;;;;;11.77;10.77;;;30.10;39.70;;;;;;5070485;28;20413;-58
2023/06/20 10:57:53;;;;;;;12.13;11.03;;;30.20;38.60;;;;;;5071901;28;20773;-55
2023/06/20 11:00:21;;;;;;;12.80;11.60;;;30.20;38.20;;;;;;5071466;28;20406;-55
2023/06/20 11:02:55;;;;;;;12.93;11.73;;;30.20;38.10;;;;;;5071695;28;20419;-57
2023/06/20 11:05:29;;;;;;;13.30;12.00;;;30.30;39.50;;;;;;5071557;28;20963;-56
2023/06/20 11:08:00;;;;;;;13.40;12.30;;;30.40;39.00;;;;;;5071758;28;20414;-57
2023/06/20 11:10:34;;;;;;;11.10;10.20;;;30.40;38.00;;;;;;5072766;28;20417;-54
2023/06/20 11:13:05;;;;;;;12.97;11.77;;;30.30;37.90;;;;;;5075280;28;20427;-55
2023/06/20 11:15:32;;;;;;;12.43;11.30;;;30.20;38.00;;;;;;5074262;28;20406;-56
2023/06/20 11:18:04;;;;;;;12.70;11.60;;;30.10;38.00;;;;;;5074013;28;20434;-55
2023/06/20 11:20:35;;;;;;;13.50;12.23;;;30.10;38.00;;;;;;5073847;28;20410;-54
2023/06/20 11:23:04;;;;;;;13.97;12.50;;;30.00;38.60;;;;;;5075337;28;20429;-57
2023/06/20 11:25:41;;;;;;;13.37;11.23;;;30.00;38.40;;;;;;5073810;28;20448;-54
2023/06/20 11:28:14;;;;;;;12.83;11.53;;;29.90;38.40;;;;;;5075076;28;20438;-56
2023/06/20 11:30:46;;;;;;;12.97;11.87;;;29.90;37.70;;;;;;5075017;28;20404;-57
2023/06/20 11:33:14;;;;;;;13.13;11.73;;;29.80;38.50;;;;;;5075369;28;20387;-55
2023/06/20 11:35:43;;;;;;;13.20;11.90;;;29.90;38.40;;;;;;5074983;28;20407;-54
2023/06/20 11:38:11;;;;;;;11.83;10.70;;;29.90;38.60;;;;;;5075057;28;20456;-56
2023/06/20 11:40:37;;;;;;;14.97;12.23;;;29.90;39.00;;;;;;5074956;28;20414;-54
2023/06/20 11:43:03;;;;;;;11.53;10.33;;;30.00;39.50;;;;;;5074940;28;20418;-55
2023/06/20 11:45:29;;;;;;;14.63;11.23;;;30.10;39.40;;;;;;5074849;28;20478;-56
2023/06/20 11:48:12;;;;;;;11.97;10.87;;;30.20;38.50;;;;;;5074678;28;20484;-56
2023/06/20 11:50:41;;;;;;;11.60;10.50;;;30.30;38.80;;;;;;5074505;28;20177;-55
2023/06/20 11:53:29;;;;;;;14.93;10.53;;;30.20;38.90;;;;;;5074705;28;20411;-56
2023/06/20 11:55:59;;;;;;;10.63;9.77;;;30.40;38.50;;;;;;5074790;28;20480;-54
2023/06/20 11:58:26;;;;;;;12.97;11.77;;;30.40;38.30;;;;;;5074594;28;20430;-54
2023/06/20 12:01:18;;;;;;;11.90;10.80;;;30.40;38.20;;;;;;5074260;28;20406;-57
2023/06/20 12:03:45;;;;;;;13.20;11.33;;;30.50;38.30;;;;;;5074726;28;20463;-55
2023/06/20 12:07:01;;;;;;;11.63;10.53;;;30.50;37.80;;;;;;5074487;28;20467;-54
2023/06/20 12:09:40;;;;;;;10.60;9.70;;;30.60;38.00;;;;;;5071746;28;20442;-56
2023/06/20 12:12:07;;;;;;;11.20;10.10;;;30.60;37.80;;;;;;5071923;28;20410;-55
2023/06/20 12:14:34;;;;;;;10.97;9.97;;;30.70;37.50;;;;;;5072003;28;20427;-54
2023/06/20 12:17:00;;;;;;;11.73;10.73;;;30.60;37.00;;;;;;5071940;28;20490;-56
2023/06/20 12:19:25;;;;;;;11.50;10.50;;;30.70;37.50;;;;;;5071434;28;20449;-55
2023/06/20 12:21:51;;;;;;;13.23;11.93;;;30.80;37.60;;;;;;5071008;28;20216;-56
2023/06/20 12:24:20;;;;;;;12.13;10.90;;;30.90;37.50;;;;;;5071820;28;20304;-55
2023/06/20 12:26:51;;;;;;;14.80;11.10;;;31.00;38.20;;;;;;5071708;28;20185;-54
2023/06/20 12:29:17;;;;;;;12.97;11.97;;;31.20;38.40;;;;;;5071381;28;20434;-57
2023/06/20 12:31:43;;;;;;;11.87;10.87;;;31.40;37.80;;;;;;5071697;28;20411;-55
2023/06/20 12:34:08;;;;;;;10.87;9.77;;;31.50;37.40;;;;;;5071485;28;20545;-56
2023/06/20 12:36:34;;;;;;;11.27;10.27;;;31.70;37.50;;;;;;5071570;28;20411;-56